Time;durP1;ratioP1;P1;durP2;ratioP2;P2;SDS_P1;SDS_P2;PMS_P1;PMS_P2;Temp;Humidity;BMP_temperature;BMP_pressure;BME280_temperature;BME280_humidity;BME280_pressure;Samples;Min_cycle;Max_cycle;Signal;HPM_P1;HPM_P2
2022/06/15 00:00:54;;;;;;;;;4.67;4.00;;;;;23.38;39.23;101227.41;5058237;28;47180;-88
2022/06/15 00:03:19;;;;;;;;;3.00;3.00;;;;;23.70;40.06;101280.78;5058424;28;45551;-87
2022/06/15 00:05:45;;;;;;;;;1.00;1.00;;;;;23.40;39.72;101238.16;5058344;28;45388;-88
2022/06/15 00:08:11;;;;;;;;;5.33;3.00;;;;;23.64;40.00;101284.06;5058445;28;45355;-87
2022/06/15 00:10:39;;;;;;;;;2.67;2.67;;;;;23.52;40.03;101266.97;5053220;28;45988;-88
2022/06/15 00:13:04;;;;;;;;;2.67;2.33;;;;;23.54;40.37;101275.88;5058056;28;45446;-87
2022/06/15 00:15:30;;;;;;;;;4.00;4.00;;;;;23.46;40.60;101261.22;5057439;28;45411;-87
2022/06/15 00:17:55;;;;;;;;;4.00;2.00;;;;;23.49;40.80;101278.16;5058427;28;45557;-87
2022/06/15 00:20:20;;;;;;;;;3.00;3.00;;;;;23.21;40.53;101235.38;5057731;28;46081;-87
2022/06/15 00:22:46;;;;;;;;;7.00;4.00;;;;;23.38;40.75;101267.38;5058508;28;45419;-88
2022/06/15 00:25:13;;;;;;;;;2.00;2.00;;;;;23.04;40.53;101210.56;5057347;28;45963;-87
2022/06/15 00:27:38;;;;;;;;;4.00;4.00;;;;;23.43;40.66;101269.69;5057184;28;46690;-88
2022/06/15 00:30:05;;;;;;;;;3.67;3.67;;;;;23.43;40.78;101277.84;5057400;28;45986;-87
2022/06/15 00:32:30;;;;;;;;;3.00;3.00;;;;;23.41;40.80;101279.84;5058012;28;45499;-89
2022/06/15 00:34:56;;;;;;;;;2.33;2.33;;;;;23.36;40.87;101282.97;5057951;28;45518;-87
2022/06/15 00:37:22;;;;;;;;;4.00;3.00;;;;;23.36;40.72;101280.25;5058853;28;45316;-87
2022/06/15 00:39:47;;;;;;;;;2.33;2.33;;;;;23.36;41.41;101285.69;5056905;28;45564;-88
2022/06/15 00:42:13;;;;;;;;;2.00;2.00;;;;;23.28;41.71;101272.78;5058358;28;45423;-87
2022/06/15 00:44:39;;;;;;;;;4.00;3.00;;;;;23.32;41.07;101292.38;5058115;28;45376;-87
2022/06/15 00:47:14;;;;;;;;;3.33;3.33;;;;;23.30;41.17;101280.81;5058251;28;45500;-87
2022/06/15 00:49:58;;;;;;;;;4.00;2.33;;;;;23.27;41.54;101289.22;5057418;28;47260;-87
2022/06/15 00:52:33;;;;;;;;;4.00;4.00;;;;;23.25;41.68;101285.78;5039492;28;45450;-87
2022/06/15 00:54:59;;;;;;;;;3.67;3.67;;;;;23.15;41.73;101272.13;5057891;28;45458;-87
2022/06/15 00:57:26;;;;;;;;;3.00;3.00;;;;;23.12;41.81;101281.44;5058509;28;45494;-87
2022/06/15 00:59:54;;;;;;;;;3.00;3.00;;;;;23.14;41.79;101290.31;5047085;28;47367;-87
2022/06/15 01:02:19;;;;;;;;;3.67;2.67;;;;;23.00;42.26;101260.75;5052499;28;45955;-87
2022/06/15 01:04:57;;;;;;;;;3.00;2.33;;;;;22.75;42.09;101219.38;5048291;28;45483;-87
2022/06/15 01:07:39;;;;;;;;;2.67;2.00;;;;;23.14;41.58;101287.59;5058147;28;45403;-87
2022/06/15 01:10:07;;;;;;;;;3.33;3.33;;;;;23.13;42.17;101285.00;5052083;28;47074;-87
2022/06/15 01:13:10;;;;;;;;;3.67;3.00;;;;;23.12;42.08;101291.44;5057415;28;45531;-87
2022/06/15 01:15:47;;;;;;;;;2.00;2.00;;;;;23.11;42.50;101289.75;5051961;28;45438;-88
2022/06/15 01:18:21;;;;;;;;;3.33;3.33;;;;;23.07;42.42;101286.41;5048921;28;45613;-87
2022/06/15 01:20:57;;;;;;;;;4.00;4.00;;;;;23.05;42.57;101287.56;5056866;28;46453;-87
2022/06/15 01:23:28;;;;;;;;;3.00;3.00;;;;;23.03;43.20;101282.25;5051720;28;45609;-87
2022/06/15 01:26:15;;;;;;;;;3.00;3.00;;;;;23.02;42.55;101288.69;5057331;28;45565;-87
2022/06/15 01:29:06;;;;;;;;;4.00;2.67;;;;;22.99;42.86;101288.94;5057446;28;45411;-87
2022/06/15 01:31:50;;;;;;;;;4.00;2.00;;;;;22.99;42.70;101282.63;5035382;28;47370;-88
2022/06/15 01:34:27;;;;;;;;;3.67;2.00;;;;;22.72;42.99;101241.41;5056403;28;45447;-88
2022/06/15 01:37:20;;;;;;;;;3.00;3.00;;;;;22.77;43.00;101254.59;5056453;28;45717;-88
2022/06/15 01:39:58;;;;;;;;;4.00;3.00;;;;;22.88;43.10;101284.41;5057153;28;48372;-88
2022/06/15 01:42:34;;;;;;;;;3.00;3.00;;;;;22.83;42.79;101275.81;5050371;28;46371;-88
2022/06/15 01:45:09;;;;;;;;;3.67;3.00;;;;;22.80;42.89;101281.50;5046388;28;45384;-87
2022/06/15 01:47:36;;;;;;;;;3.00;3.00;;;;;22.80;43.05;101277.91;5056780;28;45475;-88
2022/06/15 01:50:13;;;;;;;;;5.00;4.00;;;;;22.77;42.85;101270.91;5056291;28;45458;-88
2022/06/15 01:52:46;;;;;;;;;3.33;3.33;;;;;22.66;43.22;101258.22;5055020;28;46192;-87
2022/06/15 01:55:20;;;;;;;;;4.00;3.00;;;;;22.72;43.85;101271.28;5056995;28;45463;-87
2022/06/15 01:57:50;;;;;;;;;4.00;4.00;;;;;22.71;43.45;101265.97;5056210;28;45404;-87
2022/06/15 02:00:17;;;;;;;;;2.00;2.00;;;;;22.69;43.47;101268.00;5057279;28;45567;-87
2022/06/15 02:02:51;;;;;;;;;6.33;3.33;;;;;22.66;44.04;101263.66;5048502;28;46261;-88
2022/06/15 02:05:31;;;;;;;;;3.00;3.00;;;;;22.28;44.05;101208.06;5056268;28;45368;-86
2022/06/15 02:08:23;;;;;;;;;5.33;4.67;;;;;22.23;44.35;101206.75;5053697;28;45290;-87
2022/06/15 02:10:55;;;;;;;;;4.33;3.33;;;;;22.50;44.44;101253.28;5053286;28;45361;-87
2022/06/15 02:13:46;;;;;;;;;2.67;2.67;;;;;22.30;44.62;101230.53;5056477;28;46948;-87
2022/06/15 02:16:19;;;;;;;;;4.00;4.00;;;;;22.26;44.69;101228.22;5055426;28;45392;-86
2022/06/15 02:18:46;;;;;;;;;4.00;4.00;;;;;22.29;44.32;101230.69;5056421;28;46235;-87
2022/06/15 02:21:16;;;;;;;;;3.67;3.67;;;;;22.16;44.68;101213.66;5056331;28;45600;-87
2022/06/15 02:23:44;;;;;;;;;3.33;3.33;;;;;22.36;44.63;101255.44;5055919;28;48207;-87
2022/06/15 02:26:12;;;;;;;;;3.67;3.00;;;;;21.89;44.49;101190.56;5056232;28;45455;-87
2022/06/15 02:28:42;;;;;;;;;3.67;2.67;;;;;22.20;44.50;101237.72;5057391;28;47233;-87
2022/06/15 02:31:08;;;;;;;;;4.00;4.00;;;;;22.10;44.77;101228.63;5056126;28;45447;-88
2022/06/15 02:33:38;;;;;;;;;3.00;3.00;;;;;22.27;45.06;101255.25;5056052;28;45470;-88
2022/06/15 02:36:04;;;;;;;;;5.33;3.00;;;;;22.27;44.67;101262.53;5037736;28;46123;-87
2022/06/15 02:38:31;;;;;;;;;4.00;4.00;;;;;22.12;44.86;101241.09;5056396;28;45498;-88
2022/06/15 02:40:57;;;;;;;;;5.00;3.33;;;;;22.20;45.33;101258.59;5056060;28;45429;-87
2022/06/15 02:43:31;;;;;;;;;4.00;4.00;;;;;21.89;45.41;101210.47;5062998;28;47483;-87
2022/06/15 02:45:59;;;;;;;;;3.67;2.67;;;;;22.11;45.72;101247.50;5020843;28;45904;-87
2022/06/15 02:48:25;;;;;;;;;4.00;3.00;;;;;21.89;45.69;101204.13;5043388;28;45348;-87
2022/06/15 02:51:02;;;;;;;;;4.00;4.00;;;;;22.13;45.46;101248.22;5026220;28;45755;-87
2022/06/15 02:53:29;;;;;;;;;2.00;2.00;;;;;21.64;45.59;101173.66;5031723;28;47302;-87
2022/06/15 02:55:57;;;;;;;;;3.33;3.33;;;;;22.10;45.19;101245.78;5025086;28;45389;-88
2022/06/15 02:58:32;;;;;;;;;4.33;4.33;;;;;22.09;45.21;101249.47;5029542;28;45687;-87
2022/06/15 03:00:58;;;;;;;;;3.67;3.33;;;;;21.83;45.58;101208.25;5028257;28;45537;-87
2022/06/15 03:03:27;;;;;;;;;4.00;4.00;;;;;22.08;45.87;101255.06;5028587;28;46207;-88
2022/06/15 03:05:53;;;;;;;;;3.33;3.33;;;;;21.82;45.84;101206.53;5035511;28;45728;-87
2022/06/15 03:08:20;;;;;;;;;3.00;3.00;;;;;22.02;45.50;101252.84;5025464;28;45518;-88
2022/06/15 03:10:48;;;;;;;;;6.00;5.00;;;;;22.01;45.77;101257.41;5015305;28;45706;-88
2022/06/15 03:13:13;;;;;;;;;5.00;5.00;;;;;22.00;45.69;101250.25;5030461;28;45914;-88
2022/06/15 03:15:39;;;;;;;;;5.00;4.00;;;;;21.77;45.67;101218.75;5031312;28;45528;-87
2022/06/15 03:18:04;;;;;;;;;5.00;4.00;;;;;21.65;46.03;101209.78;5046177;28;45411;-88
2022/06/15 03:20:30;;;;;;;;;4.33;4.33;;;;;21.60;45.65;101203.88;5026012;28;45558;-87
2022/06/15 03:22:55;;;;;;;;;3.33;3.33;;;;;21.88;45.98;101245.84;5036177;28;46277;-87
2022/06/15 03:25:21;;;;;;;;;4.33;3.67;;;;;21.87;46.22;101255.84;5029836;28;45464;-88
2022/06/15 03:27:46;;;;;;;;;5.00;5.00;;;;;21.88;46.53;101252.13;5030037;28;45411;-87
2022/06/15 03:30:12;;;;;;;;;6.00;5.00;;;;;21.69;46.31;101225.69;5027057;28;45550;-87
2022/06/15 03:32:38;;;;;;;;;5.00;5.00;;;;;21.87;46.45;101257.72;5024296;28;46256;-88
2022/06/15 03:35:04;;;;;;;;;5.00;4.00;;;;;21.78;45.89;101253.06;5024439;28;45779;-87
2022/06/15 03:37:30;;;;;;;;;5.67;4.67;;;;;21.57;45.61;101210.44;5028389;28;45416;-87
2022/06/15 03:39:56;;;;;;;;;5.00;3.33;;;;;21.80;46.49;101242.94;5032077;28;45408;-87
2022/06/15 03:42:24;;;;;;;;;2.00;2.00;;;;;21.87;46.02;101261.28;5035607;28;47105;-87
2022/06/15 03:44:50;;;;;;;;;4.67;3.67;;;;;21.86;45.93;101256.81;5035532;28;45493;-88
2022/06/15 03:47:17;;;;;;;;;5.00;4.00;;;;;21.86;46.19;101256.81;5055148;28;45873;-87
2022/06/15 03:49:53;;;;;;;;;5.33;3.00;;;;;21.50;46.13;101201.94;5056002;28;45704;-87
2022/06/15 03:52:21;;;;;;;;;4.33;4.33;;;;;21.81;46.24;101252.78;5055036;28;46365;-88
2022/06/15 03:54:47;;;;;;;;;3.00;3.00;;;;;21.81;46.93;101250.06;5054764;28;45916;-87
2022/06/15 03:57:14;;;;;;;;;3.00;3.00;;;;;21.78;46.64;101250.34;5055250;28;45542;-87
2022/06/15 03:59:40;;;;;;;;;3.67;2.33;;;;;21.57;46.45;101215.84;5055374;28;45550;-88
2022/06/15 04:02:06;;;;;;;;;3.00;3.00;;;;;21.61;46.49;101236.31;5054617;28;45472;-88
2022/06/15 04:04:31;;;;;;;;;4.00;4.00;;;;;21.69;46.63;101257.38;5055615;28;45395;-88
2022/06/15 04:06:57;;;;;;;;;6.00;4.00;;;;;21.73;46.25;101261.56;5031277;28;45850;-88
2022/06/15 04:09:23;;;;;;;;;5.33;5.00;;;;;21.44;46.44;101209.69;5055403;28;45405;-87
2022/06/15 04:11:58;;;;;;;;;4.00;4.00;;;;;21.61;46.79;101246.28;5053837;28;45585;-89
2022/06/15 04:14:25;;;;;;;;;4.67;4.00;;;;;21.70;46.49;101264.53;5043005;28;45586;-90
2022/06/15 04:16:53;;;;;;;;;4.00;4.00;;;;;21.68;46.68;101259.25;5049873;28;45436;-87
2022/06/15 04:19:20;;;;;;;;;5.00;5.00;;;;;21.68;46.88;101256.53;5049150;28;45498;-89
2022/06/15 04:21:46;;;;;;;;;4.00;3.67;;;;;21.52;46.71;101228.06;5050214;28;45916;-87
2022/06/15 04:24:11;;;;;;;;;4.00;4.00;;;;;21.42;46.60;101212.56;5046754;28;45796;-87
2022/06/15 04:26:38;;;;;;;;;4.33;3.67;;;;;21.63;46.81;101263.31;5036179;28;45396;-87
2022/06/15 04:29:04;;;;;;;;;4.67;4.00;;;;;21.50;46.71;101258.03;5051218;28;45621;-85
2022/06/15 04:31:29;;;;;;;;;8.00;5.00;;;;;21.33;47.69;101250.34;5049068;28;47142;-84
2022/06/15 04:33:54;;;;;;;;;6.00;4.33;;;;;21.37;47.19;101247.28;5036706;28;45485;-85
2022/06/15 04:36:23;;;;;;;;;5.33;4.00;;;;;21.32;47.45;101235.09;5052330;28;45400;-82
2022/06/15 04:38:49;;;;;;;;;5.00;5.00;;;;;21.45;47.31;101262.97;5054660;28;45454;-91
2022/06/15 04:41:14;;;;;;;;;4.00;4.00;;;;;21.44;47.69;101263.94;5054996;28;45474;-91
2022/06/15 04:43:39;;;;;;;;;5.00;4.00;;;;;21.11;47.35;101211.44;5056113;28;45436;-91
2022/06/15 04:46:05;;;;;;;;;5.67;5.00;;;;;21.44;47.34;101266.66;5054396;28;46004;-94
2022/06/15 04:48:30;;;;;;;;;4.67;4.33;;;;;21.26;47.17;101247.31;5058043;28;46146;-89
2022/06/15 04:50:56;;;;;;;;;5.00;5.00;;;;;21.19;47.72;101235.19;5054908;28;46671;-88
2022/06/15 04:53:21;;;;;;;;;4.33;4.00;;;;;21.17;47.41;101231.78;5054421;28;45490;-89
2022/06/15 04:55:46;;;;;;;;;3.67;3.67;;;;;21.34;47.44;101258.38;5057789;28;45382;-88
2022/06/15 04:58:12;;;;;;;;;8.33;5.00;;;;;21.43;47.07;101270.38;5057193;28;45498;-88
2022/06/15 05:00:40;;;;;;;;;5.00;5.00;;;;;21.48;47.26;101276.28;5050726;28;45909;-86
2022/06/15 05:03:07;;;;;;;;;2.00;2.00;;;;;21.48;46.88;101274.41;5057090;28;45593;-89
2022/06/15 05:05:33;;;;;;;;;5.00;5.00;;;;;21.47;46.91;101280.00;5057271;28;45589;-87
2022/06/15 05:07:59;;;;;;;;;5.00;5.00;;;;;21.26;46.98;101250.03;5055005;28;45529;-87
2022/06/15 05:10:25;;;;;;;;;5.00;5.00;;;;;21.38;46.87;101268.00;5051280;28;45396;-87
2022/06/15 05:12:52;;;;;;;;;5.33;5.33;;;;;21.32;46.79;101252.22;5050858;28;45932;-87
2022/06/15 05:15:18;;;;;;;;;5.00;5.00;;;;;21.33;47.65;101247.66;5039152;28;45693;-88
2022/06/15 05:17:46;;;;;;;;;3.00;3.00;;;;;21.37;47.55;101255.41;5056906;28;45431;-88
2022/06/15 05:20:14;;;;;;;;;5.00;5.00;;;;;21.45;47.56;101271.97;5056730;28;45479;-87
2022/06/15 05:22:39;;;;;;;;;5.00;5.00;;;;;21.37;47.23;101258.13;5057483;28;45429;-89
2022/06/15 05:25:08;;;;;;;;;3.00;3.00;;;;;21.46;47.02;101265.53;5057398;28;45498;-90
2022/06/15 05:27:35;;;;;;;;;6.00;4.33;;;;;21.16;47.55;101254.44;5048038;28;45656;-91
2022/06/15 05:30:01;;;;;;;;;3.33;3.33;;;;;21.07;47.85;101273.19;5056199;28;46027;-88
2022/06/15 05:32:26;;;;;;;;;7.33;6.33;;;;;20.83;48.84;101254.28;5057545;28;45396;-89
2022/06/15 05:34:54;;;;;;;;;5.00;5.00;;;;;21.03;48.77;101273.53;5039325;28;45569;-89
2022/06/15 05:37:20;;;;;;;;;4.33;4.33;;;;;21.08;48.42;101277.59;5048680;28;45763;-88
2022/06/15 05:39:45;;;;;;;;;5.67;5.67;;;;;21.08;48.19;101272.19;5054717;28;47082;-89
2022/06/15 05:42:11;;;;;;;;;4.67;4.67;;;;;21.12;48.86;101271.94;5060378;28;45314;-88
2022/06/15 05:47:05;;;;;;;;;5.67;5.67;;;;;21.00;47.98;101241.25;5066745;28;45175;-93
2022/06/15 05:49:30;;;;;;;;;5.33;5.33;;;;;21.29;48.65;101266.88;5062189;28;46355;-92
2022/06/15 05:51:55;;;;;;;;;5.67;4.00;;;;;21.35;48.29;101270.09;5064572;28;45470;-91
2022/06/15 05:54:21;;;;;;;;;7.00;6.00;;;;;21.08;47.72;101215.25;5043206;28;45370;-89
2022/06/15 05:56:47;;;;;;;;;5.00;5.00;;;;;21.41;47.52;101256.06;5042395;28;45421;-91
2022/06/15 05:59:13;;;;;;;;;5.67;5.33;;;;;21.25;47.52;101219.31;5039668;28;47237;-91
2022/06/15 06:01:38;;;;;;;;;8.67;7.00;;;;;21.11;47.63;101183.47;5053487;28;45493;-96
2022/06/15 06:04:04;;;;;;;;;5.00;5.00;;;;;21.76;47.65;101291.16;5057753;28;45471;-91
2022/06/15 06:06:31;;;;;;;;;5.33;4.33;;;;;21.79;47.49;101280.03;5057002;28;45547;-87
2022/06/15 06:08:57;;;;;;;;;4.33;4.00;;;;;21.70;47.24;101261.81;5055846;28;46230;-85
2022/06/15 06:11:24;;;;;;;;;6.33;5.00;;;;;21.81;46.89;101264.50;5056635;28;45586;-85
2022/06/15 06:13:49;;;;;;;;;5.33;5.33;;;;;21.84;47.05;101263.38;5052011;28;45328;-85
2022/06/15 06:16:15;;;;;;;;;6.33;5.00;;;;;21.86;47.71;101253.25;5056874;28;45314;-84
2022/06/15 06:18:41;;;;;;;;;6.33;5.00;;;;;21.38;46.83;101167.66;5038558;28;47536;-85
2022/06/15 06:21:06;;;;;;;;;5.33;4.00;;;;;22.12;46.87;101278.22;5055893;28;45791;-89
2022/06/15 06:23:33;;;;;;;;;7.00;6.00;;;;;21.84;46.49;101223.53;5056709;28;45522;-85
2022/06/15 06:25:59;;;;;;;;;7.33;6.67;;;;;22.11;47.11;101263.78;5056720;28;45504;-85
2022/06/15 06:28:30;;;;;;;;;12.00;11.33;;;;;22.21;46.34;101268.47;5056337;28;46529;-85
2022/06/15 06:30:58;;;;;;;;;10.33;8.33;;;;;22.37;46.83;101290.63;5056213;28;45435;-85
2022/06/15 06:33:29;;;;;;;;;5.33;5.00;;;;;22.12;46.23;101235.66;5052569;28;45399;-85
2022/06/15 06:35:56;;;;;;;;;7.00;7.00;;;;;22.48;46.39;101284.28;5056395;28;45571;-85
2022/06/15 06:38:22;;;;;;;;;10.00;8.33;;;;;22.20;46.26;101235.00;5050893;28;46027;-85
2022/06/15 06:40:57;;;;;;;;;7.67;7.67;;;;;22.58;46.22;101287.94;5055764;28;45499;-85
2022/06/15 06:43:22;;;;;;;;;7.00;7.00;;;;;22.66;45.34;101293.56;5056543;28;45414;-85
2022/06/15 06:45:49;;;;;;;;;6.67;6.67;;;;;22.43;45.89;101238.50;5056102;28;45605;-85
2022/06/15 06:48:15;;;;;;;;;10.00;8.67;;;;;22.79;45.70;101287.94;5055977;28;47075;-85
2022/06/15 06:50:42;;;;;;;;;9.33;9.33;;;;;22.84;44.88;101284.81;5057198;28;45545;-85
2022/06/15 06:53:10;;;;;;;;;8.67;6.67;;;;;22.89;44.83;101282.56;5056240;28;45326;-85
2022/06/15 06:55:35;;;;;;;;;6.00;6.00;;;;;22.93;44.07;101279.44;5054611;28;45499;-84
2022/06/15 06:58:01;;;;;;;;;17.33;14.67;;;;;22.97;44.31;101280.91;5054927;28;46280;-85
2022/06/15 07:00:29;;;;;;;;;7.00;7.00;;;;;23.02;44.51;101287.84;5055108;28;45359;-85
2022/06/15 07:02:54;;;;;;;;;7.33;5.00;;;;;23.04;44.13;101286.69;5055855;28;45574;-86
2022/06/15 07:05:20;;;;;;;;;8.00;6.00;;;;;22.82;43.79;101246.03;5056175;28;45366;-86
2022/06/15 07:07:45;;;;;;;;;6.00;6.00;;;;;23.09;45.06;101281.72;5056316;28;45549;-85
2022/06/15 07:10:11;;;;;;;;;6.00;6.00;;;;;23.21;43.66;101284.34;5055512;28;45408;-85
2022/06/15 07:12:38;;;;;;;;;5.67;5.33;;;;;23.21;44.15;101276.19;5056079;28;45514;-86
2022/06/15 07:15:05;;;;;;;;;9.00;9.00;;;;;23.09;44.53;101246.34;5056153;28;45462;-86
2022/06/15 07:17:30;;;;;;;;;9.67;7.00;;;;;23.27;44.47;101265.63;5055114;28;46787;-85
2022/06/15 07:19:55;;;;;;;;;7.33;6.00;;;;;23.28;44.20;101258.31;5055463;28;45371;-85
2022/06/15 07:22:22;;;;;;;;;7.33;7.00;;;;;23.53;44.00;101293.22;5056016;28;45438;-85
2022/06/15 07:24:47;;;;;;;;;6.33;6.33;;;;;23.59;43.92;101295.38;5055334;28;45564;-85
2022/06/15 07:27:13;;;;;;;;;9.33;7.00;;;;;23.26;43.25;101227.69;5055423;28;46026;-86
2022/06/15 07:29:38;;;;;;;;;8.00;6.33;;;;;23.53;44.16;101273.28;5054481;28;45503;-86
2022/06/15 07:32:05;;;;;;;;;6.00;6.00;;;;;23.71;43.71;101300.69;5055186;28;45421;-86
2022/06/15 07:34:30;;;;;;;;;8.33;7.00;;;;;23.69;44.22;101289.94;5055964;28;45419;-85
2022/06/15 07:36:56;;;;;;;;;6.00;6.00;;;;;23.84;45.02;101314.09;5055105;28;45515;-85
2022/06/15 07:39:27;;;;;;;;;6.00;6.00;;;;;23.91;44.31;101302.50;5054925;28;45402;-86
2022/06/15 07:41:54;;;;;;;;;9.00;8.00;;;;;23.97;43.74;101298.34;5054819;28;45521;-86
2022/06/15 07:44:26;;;;;;;;;5.33;5.33;;;;;24.04;43.18;101298.66;5048527;28;45400;-86
2022/06/15 07:49:54;;;;;;;;;8.00;6.67;;;;;24.09;44.34;101296.38;5051488;28;45588;-86
2022/06/15 07:49:55;;;;;;;;;7.00;6.00;;;;;24.16;43.62;101292.94;5053722;28;45448;-85
2022/06/15 07:52:33;;;;;;;;;2.00;2.00;;;;;24.23;44.23;101293.22;5054929;28;45366;-86
2022/06/15 07:55:00;;;;;;;;;6.00;6.00;;;;;24.17;45.41;101272.88;5054492;28;45495;-85
2022/06/15 07:57:25;;;;;;;;;11.00;7.67;;;;;24.36;43.26;101293.81;5055027;28;45433;-85
2022/06/15 07:59:51;;;;;;;;;5.33;5.00;;;;;24.23;42.99;101257.81;5047852;28;45407;-85
2022/06/15 08:02:17;;;;;;;;;6.00;5.00;;;;;24.30;43.74;101256.22;5054258;28;45909;-84
2022/06/15 08:04:43;;;;;;;;;8.33;6.67;;;;;24.25;44.78;101236.72;5055093;28;45468;-85
2022/06/15 08:07:12;;;;;;;;;4.00;4.00;;;;;24.36;41.87;101252.09;5054613;28;46588;-85
2022/06/15 08:09:37;;;;;;;;;6.67;5.67;;;;;24.58;43.95;101275.47;5054294;28;45495;-85
2022/06/15 08:12:15;;;;;;;;;7.67;6.00;;;;;24.70;44.04;101285.22;5036337;28;45530;-85
2022/06/15 08:14:50;;;;;;;;;8.33;7.00;;;;;24.41;43.52;101220.66;5055460;28;45959;-85
2022/06/15 08:17:29;;;;;;;;;7.67;7.00;;;;;24.92;44.38;101284.00;5033448;28;46977;-86
2022/06/15 08:20:01;;;;;;;;;6.33;6.33;;;;;25.04;43.87;101279.25;5055943;28;45325;-89
2022/06/15 08:22:27;;;;;;;;;8.00;6.33;;;;;24.80;43.70;101226.06;5055544;28;45328;-88
2022/06/15 08:24:53;;;;;;;;;6.33;6.00;;;;;25.09;43.97;101252.38;5055776;28;45558;-86
2022/06/15 08:27:21;;;;;;;;;5.00;4.33;;;;;25.10;44.35;101235.00;5046405;28;45885;-84
2022/06/15 08:29:53;;;;;;;;;8.00;6.00;;;;;25.33;43.53;101249.13;5047407;28;45857;-87
2022/06/15 08:32:19;;;;;;;;;6.00;4.33;;;;;25.30;43.22;101213.13;5027683;28;45753;-85
2022/06/15 08:34:45;;;;;;;;;4.67;4.67;;;;;25.82;42.92;101279.75;5057975;28;45486;-87
2022/06/15 08:37:14;;;;;;;;;5.00;5.00;;;;;26.08;42.10;101270.84;5055008;28;47141;-85
2022/06/15 08:39:40;;;;;;;;;7.33;6.33;;;;;26.31;42.23;101277.56;5052420;28;45478;-86
2022/06/15 08:42:14;;;;;;;;;6.67;6.67;;;;;26.40;42.18;101275.75;5050067;28;45451;-87
2022/06/15 08:45:11;;;;;;;;;4.67;4.67;;;;;26.43;41.71;101285.50;5057243;28;45478;-86
2022/06/15 08:47:51;;;;;;;;;8.33;6.00;;;;;26.24;41.39;101240.94;5032222;28;47350;-84
2022/06/15 08:50:30;;;;;;;;;5.33;5.00;;;;;26.42;41.39;101262.78;5056865;28;45422;-85
2022/06/15 08:53:23;;;;;;;;;6.00;6.00;;;;;26.46;42.26;101258.75;5053682;28;45498;-85
2022/06/15 08:56:47;;;;;;;;;5.00;5.00;;;;;26.71;40.83;101270.75;5057898;28;45418;-85
2022/06/15 09:03:14;;;;;;;;;6.00;6.00;;;;;27.31;40.94;101274.56;4966264;28;46775;-95
2022/06/15 09:05:59;;;;;;;;;6.00;4.33;;;;;27.71;40.49;101259.31;4967932;28;45811;-84
2022/06/15 09:08:33;;;;;;;;;6.33;6.33;;;;;28.07;39.78;101234.41;4965276;28;45451;-89
2022/06/15 09:11:35;;;;;;;;;5.33;5.33;;;;;28.73;39.11;101262.69;4948389;28;46901;-86
2022/06/15 09:14:18;;;;;;;;;7.00;7.00;;;;;29.25;37.91;101262.28;4965055;28;45531;-86
2022/06/15 09:17:07;;;;;;;;;4.00;4.00;;;;;29.53;37.17;101264.59;4965099;28;45503;-84
2022/06/15 09:19:38;;;;;;;;;5.00;5.00;;;;;29.33;37.12;101232.03;4971660;28;45567;-84
2022/06/15 09:22:07;;;;;;;;;4.00;4.00;;;;;29.65;37.03;101257.66;4968823;28;46775;-83
2022/06/15 09:24:47;;;;;;;;;5.33;5.33;;;;;29.96;36.33;101257.66;4971427;28;45568;-84
2022/06/15 09:27:21;;;;;;;;;5.67;4.67;;;;;30.40;35.98;101262.53;4971178;28;45960;-85
2022/06/15 09:30:04;;;;;;;;;5.00;5.00;;;;;30.76;35.33;101264.59;4970957;28;45741;-85
2022/06/15 09:33:07;;;;;;;;;6.00;6.00;;;;;31.11;34.71;101270.44;4972595;28;46174;-84
2022/06/15 09:35:38;;;;;;;;;7.00;7.00;;;;;31.47;34.02;101273.34;5042211;28;45484;-85
2022/06/15 09:38:06;;;;;;;;;5.33;5.33;;;;;31.69;33.39;101241.16;5050690;28;45454;-89
2022/06/15 09:40:46;;;;;;;;;5.00;5.00;;;;;31.85;32.91;101223.53;5081190;22;45517;-87
2022/06/15 09:46:43;;;;;;;;;6.00;5.00;;;;;32.39;32.15;101247.84;5173874;22;45555;-87
2022/06/15 09:49:49;;;;;;;;;5.67;5.00;;;;;32.68;32.06;101256.19;5062899;28;45927;-86
2022/06/15 09:53:07;;;;;;;;;6.00;6.00;;;;;33.05;32.11;101260.50;5074825;28;45570;-86
2022/06/15 09:55:39;;;;;;;;;2.00;1.00;;;;;32.52;30.80;101128.47;5072661;28;46177;-84
2022/06/15 09:58:08;;;;;;;;;5.00;5.00;;;;;33.31;30.79;101229.41;5072517;28;45417;-85
2022/06/15 10:01:12;;;;;;;;;6.33;5.00;;;;;33.26;30.90;101256.81;5071295;28;45486;-85
2022/06/15 10:03:53;;;;;;;;;6.67;6.00;;;;;32.77;30.39;101137.09;5069534;28;45591;-86
2022/06/15 10:06:51;;;;;;;;;3.67;3.00;;;;;33.81;30.00;101254.06;5065935;28;45444;-90
2022/06/15 10:09:21;;;;;;;;;4.00;4.00;;;;;33.67;29.98;101192.38;5069906;28;45503;-85
2022/06/15 10:12:55;;;;;;;;;4.00;4.00;;;;;33.94;29.75;101242.22;5064896;28;45458;-92
2022/06/15 10:14:42;;;;;;;;;3.33;3.33;;;;;33.99;29.57;101251.56;5072664;28;45520;-88
2022/06/15 10:17:34;;;;;;;;;4.33;4.33;;;;;34.00;29.58;101256.06;5069857;27;46749;-85
2022/06/15 10:20:58;;;;;;;;;4.67;4.67;;;;;33.99;29.19;101251.56;5072011;28;45455;-89
2022/06/15 10:23:33;;;;;;;;;4.33;4.33;;;;;33.17;29.68;101133.72;4986366;28;45512;-88
2022/06/15 10:25:58;;;;;;;;;0.00;0.00;;;;;33.30;28.96;101161.41;4989904;28;45526;-90
2022/06/15 10:28:30;;;;;;;;;4.00;4.00;;;;;33.78;29.47;101249.81;4989147;28;45586;-89
2022/06/15 10:31:02;;;;;;;;;5.00;5.00;;;;;33.15;29.56;101142.19;4989392;28;45627;-92
2022/06/15 10:33:47;;;;;;;;;4.00;4.00;;;;;33.77;29.43;101247.28;4990992;28;45490;-91
2022/06/15 10:36:45;;;;;;;;;5.67;5.67;;;;;33.61;29.45;101229.16;4991431;28;45547;-89
2022/06/15 10:39:27;;;;;;;;;3.33;2.67;;;;;33.40;29.44;101188.63;4993415;28;46564;-91
2022/06/15 10:42:05;;;;;;;;;4.67;4.67;;;;;33.60;29.01;101224.69;4997159;28;45322;-93
2022/06/15 10:44:53;;;;;;;;;3.00;3.00;;;;;33.00;29.12;101128.50;4998719;28;45545;-95
2022/06/15 10:47:26;;;;;;;;;4.33;4.33;;;;;33.42;29.17;101184.59;4980440;28;45478;-92
2022/06/15 10:50:18;;;;;;;;;4.33;3.33;;;;;33.85;28.86;101260.91;4995455;28;48541;-92
2022/06/15 10:52:48;;;;;;;;;4.00;4.00;;;;;33.31;29.09;101165.84;4990751;28;45615;-91
2022/06/15 11:05:10;;;;;;;;;5.33;4.33;;;;;33.81;29.80;101254.06;5265815;22;46033;-92
2022/06/15 11:07:51;;;;;;;;;5.00;5.00;;;;;33.79;29.52;101254.31;5003334;28;45541;-89
2022/06/15 11:10:31;;;;;;;;;6.00;5.00;;;;;33.69;29.44;101258.50;5036264;28;45494;-88
2022/06/15 11:13:39;;;;;;;;;5.67;5.67;;;;;33.55;29.26;101255.69;5051560;28;46148;-85
2022/06/15 11:19:13;;;;;;;;;5.00;5.00;;;;;33.14;30.01;101209.56;5053148;28;45665;-85
2022/06/15 11:21:52;;;;;;;;;6.33;5.67;;;;;32.99;29.53;101212.44;5054543;28;45566;-89
2022/06/15 11:24:44;;;;;;;;;5.00;5.00;;;;;33.13;30.50;101253.97;5060483;28;46716;-86
2022/06/15 11:27:28;;;;;;;;;6.33;6.33;;;;;32.57;30.36;101177.56;5054258;28;46368;-84
2022/06/15 11:29:53;;;;;;;;;7.33;6.00;;;;;32.96;30.20;101254.25;5054046;28;45551;-84
2022/06/15 11:32:31;;;;;;;;;4.00;4.00;;;;;32.62;30.71;101223.88;5050642;28;45449;-88
2022/06/15 11:35:06;;;;;;;;;6.00;6.00;;;;;32.47;31.03;101208.22;5050985;28;46170;-86
2022/06/15 11:37:52;;;;;;;;;6.33;6.33;;;;;32.48;30.84;101236.69;5047135;28;45522;-87
2022/06/15 11:40:40;;;;;;;;;5.67;5.67;;;;;32.20;31.29;101201.63;5051877;28;45563;-88
2022/06/15 11:43:14;;;;;;;;;9.00;6.00;;;;;32.35;30.84;101245.69;5055018;28;45364;-88
2022/06/15 11:46:13;;;;;;;;;8.00;7.33;;;;;32.05;31.43;101237.53;5049749;28;46265;-84
2022/06/15 11:48:47;;;;;;;;;6.00;6.00;;;;;31.12;32.40;101181.31;5052031;28;46370;-85
2022/06/15 11:51:12;;;;;;;;;6.00;6.00;;;;;30.99;33.73;101252.69;5037587;28;45413;-87
2022/06/15 11:54:02;;;;;;;;;6.00;6.00;;;;;30.78;34.02;101256.16;5057757;28;45838;-88
2022/06/15 11:59:36;;;;;;;;;5.33;5.33;;;;;30.67;34.08;101255.59;5146632;22;45508;-82
2022/06/15 12:02:17;;;;;;;;;5.67;5.67;;;;;30.63;35.00;101257.00;5075282;28;45486;-84
2022/06/15 12:05:01;;;;;;;;;6.00;6.00;;;;;30.56;34.67;101257.94;5076597;28;45552;-85
2022/06/15 12:07:38;;;;;;;;;7.00;6.33;;;;;30.40;34.47;101259.78;5077346;28;50022;-85
2022/06/15 12:10:24;;;;;;;;;7.67;6.67;;;;;30.05;34.65;101255.72;5076980;27;46004;-85
2022/06/15 12:12:58;;;;;;;;;7.33;7.33;;;;;30.06;35.49;101252.78;5073809;27;45516;-85